Date,TemperatureHighF,TemperatureAvgF,TemperatureLowF,DewpointHighF,DewpointAvgF,DewpointLowF,HumidityHigh,HumidityAvg,HumidityLow,PressureMaxIn,PressureMinIn,WindSpeedMaxMPH,WindSpeedAvgMPH,GustSpeedMaxMPH,PrecipitationSumIn
2013-1-1,82,72,63,65,57,51,87,61,41,0.00,40.00,22,11,32,0.00
2013-1-2,82,73,66,63,57,50,68,58,39,0.00,40.00,19,11,30,0.00
2013-1-3,82,72,64,65,55,44,69,56,42,0.00,40.00,19,10,32,0.00
2013-1-4,82,73,68,61,57,54,74,58,45,0.00,40.00,31,19,47,0.00
2013-1-5,80,73,64,64,56,47,82,56,40,0.00,40.00,19,11,30,0.00
2013-1-6,78,70,60,61,56,47,78,61,52,0.00,40.00,10,7,21,0.00
2013-1-7,79,69,62,62,56,48,78,63,46,0.00,40.00,21,11,35,0.00
2013-1-8,80,70,59,62,54,43,74,58,43,0.00,40.00,18,10,30,0.00
2013-1-9,79,71,62,62,57,52,77,63,46,0.00,40.00,14,8,22,0.00
2013-1-10,80,71,63,64,58,50,74,63,48,0.00,40.00,17,10,29,0.00
2013-1-11,80,71,62,63,57,44,73,61,43,0.00,40.00,26,12,34,0.00
2013-1-12,78,69,60,63,57,50,76,65,45,0.00,40.00,10,6,15,0.00
2013-1-13,80,70,62,65,57,51,77,64,48,0.00,40.00,10,7,16,0.00
2013-1-14,80,71,62,66,61,54,83,70,58,0.00,40.00,10,6,16,0.00
2013-1-15,75,70,68,68,67,63,97,88,76,0.00,40.00,8,4,14,0.27
2013-1-16,77,70,63,67,62,57,94,77,56,0.00,40.00,10,6,16,0.02
2013-1-17,77,68,59,60,56,50,85,67,51,0.00,40.00,11,7,19,0.00
2013-1-18,76,68,58,61,56,50,80,65,47,0.00,40.00,13,7,18,0.00
2013-1-19,81,70,61,55,49,39,67,50,23,0.00,40.00,23,14,32,0.00
2013-1-20,78,70,64,55,52,50,69,54,38,0.00,40.00,23,19,36,0.00
2013-1-21,78,70,64,61,55,51,72,60,39,0.00,40.00,22,15,35,0.00
2013-1-22,79,70,62,58,55,50,72,58,42,0.00,40.00,19,12,34,0.00
2013-1-23,80,70,63,62,57,53,72,64,46,0.00,40.00,17,10,35,0.00
2013-1-24,78,69,62,63,57,50,81,65,46,0.00,40.00,10,7,16,0.00
2013-1-25,77,69,61,63,58,52,83,67,55,0.00,40.00,10,6,16,0.00
2013-1-26,78,69,60,62,56,51,83,65,50,0.00,40.00,10,6,17,0.00
2013-1-27,79,69,61,62,55,49,76,62,45,0.00,40.00,11,7,19,0.00
2013-1-28,78,70,62,62,56,47,73,61,49,0.00,40.00,9,6,14,0.00
2013-1-29,75,69,62,65,61,54,92,75,64,0.00,40.00,8,6,12,0.01
2013-1-30,75,71,65,67,64,62,97,81,65,0.00,40.00,10,5,14,0.32
2013-1-31,78,72,64,65,61,56,82,68,54,0.00,40.00,18,9,27,0.00
2013-2-1,79,72,68,61,58,51,76,62,44,0.00,40.00,29,22,40,0.00
2013-2-2,80,70,62,59,52,42,66,54,42,0.00,40.00,22,14,31,0.00
2013-2-3,80,69,62,59,54,50,71,60,42,0.00,40.00,27,15,39,0.00
2013-2-4,77,70,63,59,55,51,72,59,46,0.00,40.00,29,19,46,0.00
2013-2-5,78,70,62,57,54,50,72,58,45,0.00,40.00,25,15,37,0.00
2013-2-6,78,70,62,61,55,48,73,59,43,0.00,40.00,15,9,26,0.00
2013-2-7,78,72,66,66,59,56,74,65,55,0.00,40.00,17,9,25,0.00
2013-2-8,81,72,65,63,57,49,72,61,43,0.00,40.00,17,11,26,0.00
2013-2-9,79,70,61,60,56,50,70,61,45,0.00,40.00,21,14,36,0.00
2013-2-10,79,72,66,60,57,53,69,58,40,0.00,40.00,26,18,42,0.00
2013-2-11,81,72,65,59,56,50,73,59,37,0.00,40.00,23,18,34,0.00
2013-2-12,78,69,65,57,55,53,74,63,44,0.00,40.00,23,18,34,0.00
2013-2-13,76,68,62,55,51,48,71,56,43,0.00,40.00,22,16,31,0.00
2013-2-14,76,68,60,54,52,48,71,58,44,0.00,40.00,22,16,31,0.00
2013-2-15,81,70,62,59,55,50,71,59,45,0.00,40.00,22,15,41,0.00
2013-2-16,77,70,67,57,55,52,70,59,43,0.00,40.00,35,24,49,0.00
2013-2-17,79,71,63,56,52,44,62,51,35,0.00,40.00,33,19,51,0.00
2013-2-18,76,70,63,59,54,49,69,58,49,0.00,40.00,33,20,59,0.00
2013-2-19,76,70,66,56,54,51,68,58,46,0.00,40.00,30,23,46,0.00
2013-2-20,79,71,62,58,56,52,72,60,45,0.00,40.00,30,21,45,0.00
2013-2-21,81,72,67,63,59,56,73,63,49,0.00,40.00,24,14,34,0.00
2013-2-22,80,72,67,60,56,52,70,56,44,0.00,40.00,24,16,36,0.00
2013-2-23,80,72,67,60,56,54,72,59,43,0.00,40.00,24,15,39,0.00
2013-2-24,78,71,65,59,56,52,68,60,46,0.00,40.00,28,22,42,0.00
2013-2-25,79,71,65,59,56,54,70,61,44,0.00,40.00,28,20,42,0.00
2013-2-26,80,71,65,57,53,47,68,54,38,0.00,40.00,25,18,40,0.00
2013-2-27,78,70,66,57,54,52,68,58,44,0.00,40.00,25,19,36,0.00
2013-2-28,78,69,60,56,52,47,65,55,40,0.00,40.00,22,17,36,0.00
2013-3-1,77,70,65,55,50,45,66,51,35,0.00,40.00,31,24,47,0.00
2013-3-2,77,70,65,58,53,48,67,56,41,0.00,40.00,28,21,45,0.00
2013-3-3,80,70,65,57,54,52,69,57,39,0.00,40.00,25,19,39,0.00
2013-3-4,79,70,64,56,53,48,70,55,37,0.00,40.00,26,18,36,0.00
2013-3-5,79,70,63,57,53,47,69,56,39,0.00,40.00,18,14,30,0.00
2013-3-6,79,70,60,59,54,47,71,59,44,0.00,40.00,16,10,25,0.00
2013-3-7,78,68,60,62,56,48,84,66,43,0.00,40.00,15,8,21,0.00
2013-3-8,77,69,58,62,56,48,84,66,45,0.00,40.00,11,6,17,0.00
2013-3-9,84,72,60,63,53,45,73,52,32,0.00,40.00,23,11,33,0.00
2013-3-10,84,74,67,67,62,53,92,67,40,0.00,40.00,24,9,36,0.00
2013-3-11,79,71,62,66,60,47,92,70,53,0.00,40.00,11,7,17,0.05
2013-3-12,77,71,66,66,62,59,89,75,58,0.00,40.00,14,6,19,0.06
2013-3-13,80,72,66,61,59,54,76,65,51,0.00,40.00,16,11,21,0.01
2013-3-14,76,70,62,64,59,52,80,68,53,0.00,40.00,13,7,19,0.01
2013-3-15,74,69,65,67,63,59,94,81,66,0.00,40.00,12,6,17,0.07
2013-3-16,69,66,63,65,62,57,95,86,76,0.00,40.00,7,4,16,0.82
2013-3-17,73,68,63,59,56,53,81,68,52,0.00,40.00,13,6,19,0.01
2013-3-18,78,69,60,58,52,47,82,58,33,0.00,40.00,11,7,17,0.00
2013-3-19,78,69,58,58,53,48,74,58,40,0.00,40.00,10,7,17,0.00
2013-3-20,79,71,63,64,57,51,77,62,41,0.00,40.00,13,7,20,0.00
2013-3-21,80,73,65,67,60,54,84,65,52,0.00,40.00,12,7,18,0.00
2013-3-22,77,72,64,66,60,52,85,68,57,0.00,40.00,9,5,13,0.00
2013-3-23,77,72,65,66,61,57,84,70,59,0.00,40.00,15,8,23,0.00
2013-3-24,77,72,68,66,62,56,84,70,59,0.00,40.00,15,7,20,0.00
2013-3-25,80,72,63,66,61,55,84,69,58,0.00,40.00,15,8,20,0.00
2013-3-26,79,73,67,66,62,57,78,69,59,0.00,40.00,16,9,21,0.00
2013-3-27,80,72,65,64,59,55,73,63,52,0.00,40.00,14,9,21,0.00
2013-3-28,80,75,67,59,56,53,66,53,41,0.00,40.00,22,16,34,0.00
2013-3-29,81,70,65,66,61,55,92,73,46,0.00,40.00,17,11,30,0.74
2013-3-30,75,70,63,65,60,-100,87,76,59,0.00,40.00,13,6,19,0.01
2013-3-31,77,70,63,61,58,55,86,67,51,0.00,40.00,17,8,25,0.00
2013-4-1,74,68,60,57,53,47,82,61,40,0.00,40.00,11,7,19,0.00
2013-4-2,75,67,58,55,53,47,73,61,45,0.00,40.00,19,9,25,0.00
2013-4-3,77,70,61,58,54,49,74,57,44,0.00,40.00,15,9,22,0.00
2013-4-4,80,71,61,57,52,48,71,53,35,0.00,40.00,11,7,16,0.00
2013-4-5,81,72,66,63,59,53,74,63,53,0.00,40.00,15,9,25,0.00
2013-4-6,82,72,62,67,61,53,86,67,54,0.00,40.00,11,6,16,0.00
2013-4-7,80,74,65,67,62,57,79,68,58,0.00,40.00,15,7,27,0.00
2013-4-8,80,73,64,66,59,54,85,63,41,0.00,40.00,14,8,21,0.03
2013-4-9,81,73,66,67,63,57,86,71,55,0.00,40.00,13,7,22,0.22
2013-4-10,82,74,63,67,62,57,86,68,51,0.00,40.00,10,7,23,0.02
2013-4-11,80,74,68,68,63,57,87,68,52,0.00,40.00,10,6,16,0.01
2013-4-12,78,73,65,66,62,56,78,69,55,0.00,40.00,11,7,20,0.00
2013-4-13,86,74,67,66,62,58,80,69,43,0.00,40.00,15,6,26,0.00
2013-4-14,80,72,64,68,61,53,86,67,50,0.00,40.00,10,6,19,0.00
2013-4-15,80,73,63,66,61,55,85,67,55,0.00,40.00,11,6,16,0.00
2013-4-16,78,73,67,69,63,55,86,72,59,0.00,40.00,13,7,18,0.00
2013-4-17,83,74,66,64,59,53,75,61,39,0.00,40.00,19,12,30,0.00
2013-4-18,81,72,67,69,60,54,86,66,45,0.00,40.00,20,14,31,0.25
2013-4-19,80,72,63,67,61,54,80,70,49,0.00,40.00,14,9,27,0.15
2013-4-20,79,72,64,66,62,56,83,71,57,0.00,40.00,13,8,19,0.00
2013-4-21,80,72,63,66,60,53,87,68,47,0.00,40.00,10,6,18,0.00
2013-4-22,79,72,63,67,61,53,81,68,53,0.00,40.00,11,7,18,0.00
2013-4-23,81,74,65,67,62,56,85,68,51,0.00,40.00,10,6,19,0.00
2013-4-24,84,75,64,68,64,56,90,68,52,0.00,40.00,15,7,22,0.00
2013-4-25,82,74,67,65,59,55,72,60,46,0.00,40.00,21,12,29,0.00
2013-4-26,83,74,68,61,58,55,70,59,41,0.00,40.00,20,16,31,0.00
2013-4-27,82,74,63,62,58,53,71,60,45,0.00,40.00,14,8,21,0.00
2013-4-28,82,74,64,64,60,54,74,62,53,0.00,40.00,10,7,18,0.00
2013-4-29,81,74,67,67,63,59,83,69,55,0.00,40.00,12,6,18,0.00
2013-4-30,83,75,65,65,61,55,76,62,49,0.00,40.00,14,9,24,0.00
2013-5-1,81,73,65,62,57,49,73,58,42,0.00,40.00,15,10,23,0.00
2013-5-2,81,72,66,68,62,57,88,70,54,0.00,40.00,13,9,20,0.13
2013-5-3,80,72,66,69,63,57,91,73,51,0.00,40.00,13,9,20,0.25
2013-5-4,77,72,65,68,65,60,90,79,61,0.00,40.00,11,7,18,0.22
2013-5-5,78,72,66,67,65,63,95,80,62,0.00,40.00,9,6,16,0.18
2013-5-6,80,73,67,69,66,61,92,79,56,0.00,40.00,10,6,16,0.01
2013-5-7,81,75,67,68,64,60,93,70,56,0.00,40.00,9,6,16,0.00
2013-5-8,82,74,65,67,63,58,83,69,53,0.00,40.00,9,6,18,0.00
2013-5-9,82,75,67,67,64,60,84,68,53,0.00,40.00,10,6,21,0.00
2013-5-10,83,76,69,68,62,-100,82,68,58,0.00,40.00,13,8,19,0.00
2013-5-11,83,75,71,71,66,-100,91,77,63,0.00,40.00,12,7,21,0.08
2013-5-12,84,76,71,70,65,62,80,68,53,0.00,40.00,19,10,32,0.01
2013-5-13,82,76,69,69,65,58,77,69,61,0.00,40.00,15,10,22,0.00
2013-5-14,85,76,67,63,59,55,69,57,43,0.00,40.00,21,12,32,0.00
2013-5-15,85,75,69,67,61,55,71,63,43,0.00,40.00,16,11,33,0.01
2013-5-16,85,72,68,67,44,-100,73,58,37,0.00,40.00,17,13,29,0.10
2013-5-17,83,74,65,69,58,-100,81,61,43,0.00,40.00,18,11,28,0.14
2013-5-18,81,73,65,68,63,56,90,72,54,0.00,40.00,15,8,22,0.03
2013-5-19,79,74,68,68,66,64,91,78,64,0.00,40.00,12,7,20,0.08
2013-5-20,78,71,64,68,65,59,91,80,63,0.00,40.00,9,6,17,0.02
2013-5-21,80,73,63,66,63,58,90,72,59,0.00,40.00,9,6,17,0.01
2013-5-22,83,76,67,67,62,57,86,65,48,0.00,40.00,9,6,17,0.00
2013-5-23,87,76,66,67,62,59,84,64,41,0.00,40.00,18,8,28,0.00
2013-5-24,84,76,70,66,61,57,74,62,45,0.00,40.00,20,14,31,0.00
2013-5-25,84,76,68,68,62,57,75,63,50,0.00,40.00,23,13,36,0.00
2013-5-26,83,76,70,65,61,57,70,60,48,0.00,40.00,21,15,32,0.00
2013-5-27,83,76,70,68,62,59,74,63,45,0.00,40.00,19,12,31,0.01
2013-5-28,83,75,67,70,63,57,90,69,52,0.00,40.00,12,6,20,0.40
2013-5-29,81,74,68,70,66,59,93,75,66,0.00,40.00,15,8,25,0.35
2013-5-30,81,74,65,68,63,55,80,67,57,0.00,40.00,14,8,24,0.01
2013-5-31,83,74,65,71,64,58,89,73,54,0.00,40.00,13,7,22,0.04
2013-6-1,86,77,70,70,64,60,85,65,49,0.00,40.00,17,11,30,0.03
2013-6-2,85,76,69,68,63,57,79,64,54,0.00,40.00,26,15,42,0.00
2013-6-3,85,77,71,62,60,57,69,57,45,0.00,40.00,23,18,37,0.00
2013-6-4,83,76,69,67,61,57,68,60,48,0.00,40.00,23,16,40,0.00
2013-6-5,81,75,69,62,59,54,67,57,47,0.00,40.00,23,16,42,0.00
2013-6-6,83,75,67,61,57,48,65,53,44,0.00,40.00,23,19,36,0.00
2013-6-7,83,74,68,62,57,50,66,56,46,0.00,40.00,21,17,33,0.00
2013-6-8,85,76,70,64,59,56,69,57,40,0.00,40.00,20,14,31,0.00
2013-6-9,85,76,68,63,60,55,70,58,42,0.00,40.00,19,14,29,0.00
2013-6-10,84,76,70,62,59,57,67,57,43,0.00,40.00,21,16,32,0.00
2013-6-11,82,76,70,66,61,57,73,61,49,0.00,40.00,20,12,28,0.00
2013-6-12,83,76,70,64,60,55,67,57,41,0.00,40.00,27,16,42,0.00
2013-6-13,86,76,68,61,59,55,71,56,41,0.00,40.00,22,13,36,0.00
2013-6-14,84,75,67,61,59,56,73,58,44,0.00,40.00,20,15,32,0.00
2013-6-15,85,76,68,62,58,52,69,55,35,0.00,40.00,18,14,28,0.00
2013-6-16,85,75,69,65,59,55,71,59,41,0.00,40.00,17,13,29,0.00
2013-6-17,86,77,70,64,60,55,70,58,38,0.00,40.00,20,14,34,0.00
2013-6-18,84,75,66,66,61,56,77,63,47,0.00,40.00,16,9,24,0.00
2013-6-19,83,76,70,67,61,56,70,59,44,0.00,40.00,19,12,29,0.00